Gatwick, United Kingdom
Current Conditions -  °F | °C
As of 6:50 AM on Friday 31 Oct 2014 (Local Time) from EGKK Reporting Station
Clear Clear  
Wind Chill: 57°   Ceiling: Unl
Heat Index: 57°   Visibility: 4mi
Dew Point: 55°   Wind: 3mph
Humidity: 94%   Direction: 180°S
Pressure: 30.06"   Gusts: NA
Location:  51.1°N, 0.15°W
Report Text: EGKK 310650Z 18003KT 6000 NSC 14/13 Q1018
Loading
Personal Weather Stations






























Interactive Weather Map
Tropical Storm Tracking
New forecast layout! Learn more

10-Day Weather Forecast

Advertisements
Track Severe Weather on mobile